sensor_id;sensor_type;location;lat;lon;timestamp;P1;durP1;ratioP1;P2;durP2;ratioP2
45103;SDS011;30865;51.288;4.572;2023-05-16T00:01:20;8.75;;;5.45;;
45103;SDS011;30865;51.288;4.572;2023-05-16T00:03:46;9.40;;;6.22;;
45103;SDS011;30865;51.288;4.572;2023-05-16T00:06:11;7.30;;;5.13;;
45103;SDS011;30865;51.288;4.572;2023-05-16T00:08:37;7.40;;;5.25;;
45103;SDS011;30865;51.288;4.572;2023-05-16T00:11:02;9.35;;;7.00;;
45103;SDS011;30865;51.288;4.572;2023-05-16T00:13:28;9.70;;;5.45;;
45103;SDS011;30865;51.288;4.572;2023-05-16T00:15:54;8.38;;;5.63;;
45103;SDS011;30865;51.288;4.572;2023-05-16T00:18:20;9.65;;;6.60;;
45103;SDS011;30865;51.288;4.572;2023-05-16T00:20:47;9.77;;;5.72;;
45103;SDS011;30865;51.288;4.572;2023-05-16T00:23:13;9.50;;;5.75;;
45103;SDS011;30865;51.288;4.572;2023-05-16T00:25:39;10.05;;;6.85;;
45103;SDS011;30865;51.288;4.572;2023-05-16T00:28:04;9.90;;;6.05;;
45103;SDS011;30865;51.288;4.572;2023-05-16T00:30:30;8.15;;;6.00;;
45103;SDS011;30865;51.288;4.572;2023-05-16T00:32:56;9.48;;;6.25;;
45103;SDS011;30865;51.288;4.572;2023-05-16T00:35:21;8.02;;;6.07;;
45103;SDS011;30865;51.288;4.572;2023-05-16T00:37:49;8.55;;;5.78;;
45103;SDS011;30865;51.288;4.572;2023-05-16T00:40:15;11.73;;;6.05;;
45103;SDS011;30865;51.288;4.572;2023-05-16T00:42:40;10.27;;;6.38;;
45103;SDS011;30865;51.288;4.572;2023-05-16T00:45:06;12.65;;;7.22;;
45103;SDS011;30865;51.288;4.572;2023-05-16T00:47:32;9.63;;;5.97;;
45103;SDS011;30865;51.288;4.572;2023-05-16T00:49:59;9.80;;;6.50;;
45103;SDS011;30865;51.288;4.572;2023-05-16T00:52:24;9.82;;;6.88;;
45103;SDS011;30865;51.288;4.572;2023-05-16T00:54:50;11.27;;;6.70;;
45103;SDS011;30865;51.288;4.572;2023-05-16T00:57:16;11.00;;;6.57;;
45103;SDS011;30865;51.288;4.572;2023-05-16T00:59:45;9.27;;;6.50;;
45103;SDS011;30865;51.288;4.572;2023-05-16T01:02:11;9.80;;;6.32;;
45103;SDS011;30865;51.288;4.572;2023-05-16T01:04:38;9.27;;;6.65;;
45103;SDS011;30865;51.288;4.572;2023-05-16T01:07:04;9.65;;;6.40;;
45103;SDS011;30865;51.288;4.572;2023-05-16T01:09:30;10.60;;;6.85;;
45103;SDS011;30865;51.288;4.572;2023-05-16T01:12:01;9.68;;;7.18;;
45103;SDS011;30865;51.288;4.572;2023-05-16T01:17:35;11.43;;;7.82;;
45103;SDS011;30865;51.288;4.572;2023-05-16T01:20:19;12.02;;;7.20;;
45103;SDS011;30865;51.288;4.572;2023-05-16T01:26:33;11.15;;;6.85;;
45103;SDS011;30865;51.288;4.572;2023-05-16T01:28:47;10.13;;;6.70;;
45103;SDS011;30865;51.288;4.572;2023-05-16T01:31:13;10.15;;;7.93;;
45103;SDS011;30865;51.288;4.572;2023-05-16T01:33:40;11.05;;;7.32;;
45103;SDS011;30865;51.288;4.572;2023-05-16T01:44:22;11.48;;;7.35;;
45103;SDS011;30865;51.288;4.572;2023-05-16T01:47:09;10.20;;;6.88;;
45103;SDS011;30865;51.288;4.572;2023-05-16T01:50:19;12.63;;;7.22;;
45103;SDS011;30865;51.288;4.572;2023-05-16T01:52:34;10.95;;;6.88;;
45103;SDS011;30865;51.288;4.572;2023-05-16T01:55:10;15.85;;;8.60;;
45103;SDS011;30865;51.288;4.572;2023-05-16T01:57:59;13.15;;;7.80;;
45103;SDS011;30865;51.288;4.572;2023-05-16T02:00:28;13.90;;;9.05;;
45103;SDS011;30865;51.288;4.572;2023-05-16T02:02:54;13.63;;;8.85;;
45103;SDS011;30865;51.288;4.572;2023-05-16T02:05:19;18.98;;;11.88;;
45103;SDS011;30865;51.288;4.572;2023-05-16T02:07:45;19.35;;;11.50;;
45103;SDS011;30865;51.288;4.572;2023-05-16T02:10:11;20.30;;;11.45;;
45103;SDS011;30865;51.288;4.572;2023-05-16T02:12:37;24.70;;;13.60;;
45103;SDS011;30865;51.288;4.572;2023-05-16T02:15:03;22.85;;;13.63;;
45103;SDS011;30865;51.288;4.572;2023-05-16T02:17:29;22.33;;;12.90;;
45103;SDS011;30865;51.288;4.572;2023-05-16T02:19:54;23.30;;;13.23;;
45103;SDS011;30865;51.288;4.572;2023-05-16T02:22:20;20.38;;;12.57;;
45103;SDS011;30865;51.288;4.572;2023-05-16T02:24:45;23.98;;;13.23;;
45103;SDS011;30865;51.288;4.572;2023-05-16T02:27:11;19.88;;;12.85;;
45103;SDS011;30865;51.288;4.572;2023-05-16T02:29:36;25.65;;;14.07;;
45103;SDS011;30865;51.288;4.572;2023-05-16T02:32:02;22.90;;;13.25;;
45103;SDS011;30865;51.288;4.572;2023-05-16T02:34:28;22.48;;;13.00;;
45103;SDS011;30865;51.288;4.572;2023-05-16T02:36:53;24.55;;;13.65;;
45103;SDS011;30865;51.288;4.572;2023-05-16T02:39:19;26.88;;;14.95;;
45103;SDS011;30865;51.288;4.572;2023-05-16T02:41:44;24.70;;;13.88;;
45103;SDS011;30865;51.288;4.572;2023-05-16T02:44:10;26.48;;;14.93;;
45103;SDS011;30865;51.288;4.572;2023-05-16T02:46:38;28.77;;;15.45;;
45103;SDS011;30865;51.288;4.572;2023-05-16T02:49:04;30.23;;;15.77;;
45103;SDS011;30865;51.288;4.572;2023-05-16T02:51:30;27.73;;;14.77;;
45103;SDS011;30865;51.288;4.572;2023-05-16T02:53:55;28.80;;;16.95;;
45103;SDS011;30865;51.288;4.572;2023-05-16T02:56:23;28.38;;;16.48;;
45103;SDS011;30865;51.288;4.572;2023-05-16T02:58:49;29.60;;;15.45;;
45103;SDS011;30865;51.288;4.572;2023-05-16T03:01:15;30.60;;;16.20;;
45103;SDS011;30865;51.288;4.572;2023-05-16T03:03:41;30.05;;;15.93;;
45103;SDS011;30865;51.288;4.572;2023-05-16T03:06:07;26.40;;;14.95;;
45103;SDS011;30865;51.288;4.572;2023-05-16T03:08:32;28.15;;;16.00;;
45103;SDS011;30865;51.288;4.572;2023-05-16T03:10:59;32.38;;;16.13;;
45103;SDS011;30865;51.288;4.572;2023-05-16T03:13:25;28.23;;;15.68;;
45103;SDS011;30865;51.288;4.572;2023-05-16T03:15:50;29.58;;;16.02;;
45103;SDS011;30865;51.288;4.572;2023-05-16T03:18:16;34.28;;;16.40;;
45103;SDS011;30865;51.288;4.572;2023-05-16T03:20:41;30.35;;;16.35;;
45103;SDS011;30865;51.288;4.572;2023-05-16T03:23:07;35.05;;;17.38;;
45103;SDS011;30865;51.288;4.572;2023-05-16T03:25:36;32.35;;;17.52;;
45103;SDS011;30865;51.288;4.572;2023-05-16T03:28:02;32.90;;;17.08;;
45103;SDS011;30865;51.288;4.572;2023-05-16T03:30:33;38.38;;;16.88;;
45103;SDS011;30865;51.288;4.572;2023-05-16T03:32:59;31.60;;;16.27;;
45103;SDS011;30865;51.288;4.572;2023-05-16T03:35:26;30.38;;;15.18;;
45103;SDS011;30865;51.288;4.572;2023-05-16T03:37:52;35.38;;;17.45;;
45103;SDS011;30865;51.288;4.572;2023-05-16T03:40:17;35.25;;;17.80;;
45103;SDS011;30865;51.288;4.572;2023-05-16T03:42:43;32.30;;;17.02;;
45103;SDS011;30865;51.288;4.572;2023-05-16T03:45:09;32.00;;;17.08;;
45103;SDS011;30865;51.288;4.572;2023-05-16T03:47:35;34.42;;;18.10;;
45103;SDS011;30865;51.288;4.572;2023-05-16T03:50:01;33.85;;;17.50;;
45103;SDS011;30865;51.288;4.572;2023-05-16T03:52:27;32.30;;;16.67;;
45103;SDS011;30865;51.288;4.572;2023-05-16T03:54:53;31.65;;;16.10;;
45103;SDS011;30865;51.288;4.572;2023-05-16T03:57:18;33.88;;;18.17;;
45103;SDS011;30865;51.288;4.572;2023-05-16T03:59:43;33.13;;;18.27;;
45103;SDS011;30865;51.288;4.572;2023-05-16T04:02:09;36.72;;;18.30;;
45103;SDS011;30865;51.288;4.572;2023-05-16T04:04:35;35.47;;;17.80;;
45103;SDS011;30865;51.288;4.572;2023-05-16T04:07:01;39.80;;;18.95;;
45103;SDS011;30865;51.288;4.572;2023-05-16T04:09:27;42.05;;;20.00;;
45103;SDS011;30865;51.288;4.572;2023-05-16T04:11:52;34.88;;;15.98;;
45103;SDS011;30865;51.288;4.572;2023-05-16T04:14:20;37.78;;;18.48;;
45103;SDS011;30865;51.288;4.572;2023-05-16T04:16:47;32.30;;;18.30;;
45103;SDS011;30865;51.288;4.572;2023-05-16T04:19:12;35.95;;;17.70;;
45103;SDS011;30865;51.288;4.572;2023-05-16T04:21:37;33.42;;;17.17;;
45103;SDS011;30865;51.288;4.572;2023-05-16T04:24:03;34.78;;;16.73;;
45103;SDS011;30865;51.288;4.572;2023-05-16T04:26:29;37.42;;;19.48;;
45103;SDS011;30865;51.288;4.572;2023-05-16T04:28:55;38.78;;;17.63;;
45103;SDS011;30865;51.288;4.572;2023-05-16T04:31:22;42.38;;;18.70;;
45103;SDS011;30865;51.288;4.572;2023-05-16T04:33:49;47.70;;;19.80;;
45103;SDS011;30865;51.288;4.572;2023-05-16T04:36:14;32.63;;;16.88;;
45103;SDS011;30865;51.288;4.572;2023-05-16T04:38:40;33.90;;;18.90;;
45103;SDS011;30865;51.288;4.572;2023-05-16T04:41:05;40.63;;;20.10;;
45103;SDS011;30865;51.288;4.572;2023-05-16T04:43:31;38.30;;;18.55;;
45103;SDS011;30865;51.288;4.572;2023-05-16T04:45:57;35.72;;;17.75;;
45103;SDS011;30865;51.288;4.572;2023-05-16T04:48:23;35.88;;;19.23;;
45103;SDS011;30865;51.288;4.572;2023-05-16T04:50:48;34.03;;;17.52;;
45103;SDS011;30865;51.288;4.572;2023-05-16T04:53:14;38.47;;;18.77;;
45103;SDS011;30865;51.288;4.572;2023-05-16T04:55:40;33.72;;;17.63;;
45103;SDS011;30865;51.288;4.572;2023-05-16T04:58:05;31.42;;;17.17;;
45103;SDS011;30865;51.288;4.572;2023-05-16T05:00:32;43.15;;;20.42;;
45103;SDS011;30865;51.288;4.572;2023-05-16T05:02:57;33.92;;;17.35;;
45103;SDS011;30865;51.288;4.572;2023-05-16T05:05:33;38.60;;;17.02;;
45103;SDS011;30865;51.288;4.572;2023-05-16T05:07:58;38.13;;;18.77;;
45103;SDS011;30865;51.288;4.572;2023-05-16T05:10:24;36.70;;;18.52;;
45103;SDS011;30865;51.288;4.572;2023-05-16T05:12:51;45.05;;;18.40;;
45103;SDS011;30865;51.288;4.572;2023-05-16T05:15:17;36.20;;;16.85;;
45103;SDS011;30865;51.288;4.572;2023-05-16T05:17:49;33.15;;;18.20;;
45103;SDS011;30865;51.288;4.572;2023-05-16T05:20:15;36.58;;;18.90;;
45103;SDS011;30865;51.288;4.572;2023-05-16T05:22:40;37.72;;;16.80;;
45103;SDS011;30865;51.288;4.572;2023-05-16T05:25:06;33.85;;;18.15;;
45103;SDS011;30865;51.288;4.572;2023-05-16T05:27:32;31.27;;;16.83;;
45103;SDS011;30865;51.288;4.572;2023-05-16T05:30:01;39.22;;;17.52;;
45103;SDS011;30865;51.288;4.572;2023-05-16T05:32:27;36.38;;;19.20;;
45103;SDS011;30865;51.288;4.572;2023-05-16T05:34:52;34.90;;;18.13;;
45103;SDS011;30865;51.288;4.572;2023-05-16T05:37:18;30.00;;;16.20;;
45103;SDS011;30865;51.288;4.572;2023-05-16T05:39:43;35.65;;;19.30;;
45103;SDS011;30865;51.288;4.572;2023-05-16T05:42:09;32.15;;;16.00;;
45103;SDS011;30865;51.288;4.572;2023-05-16T05:44:35;35.65;;;18.70;;
45103;SDS011;30865;51.288;4.572;2023-05-16T05:47:01;34.80;;;17.65;;
45103;SDS011;30865;51.288;4.572;2023-05-16T05:49:28;32.03;;;17.58;;
45103;SDS011;30865;51.288;4.572;2023-05-16T05:51:53;38.40;;;17.25;;
45103;SDS011;30865;51.288;4.572;2023-05-16T05:54:19;35.50;;;16.98;;
45103;SDS011;30865;51.288;4.572;2023-05-16T05:56:45;33.70;;;17.02;;
45103;SDS011;30865;51.288;4.572;2023-05-16T05:59:11;35.28;;;16.45;;
45103;SDS011;30865;51.288;4.572;2023-05-16T06:01:39;35.50;;;17.85;;
45103;SDS011;30865;51.288;4.572;2023-05-16T06:04:07;36.03;;;16.33;;
45103;SDS011;30865;51.288;4.572;2023-05-16T06:06:33;34.78;;;17.05;;
45103;SDS011;30865;51.288;4.572;2023-05-16T06:08:58;30.38;;;17.30;;
45103;SDS011;30865;51.288;4.572;2023-05-16T06:11:24;32.88;;;14.48;;
45103;SDS011;30865;51.288;4.572;2023-05-16T06:13:52;28.80;;;15.10;;
45103;SDS011;30865;51.288;4.572;2023-05-16T06:16:18;30.50;;;15.70;;
45103;SDS011;30865;51.288;4.572;2023-05-16T06:18:47;33.63;;;16.90;;
45103;SDS011;30865;51.288;4.572;2023-05-16T06:21:13;30.55;;;17.08;;
45103;SDS011;30865;51.288;4.572;2023-05-16T06:23:39;33.72;;;17.60;;
45103;SDS011;30865;51.288;4.572;2023-05-16T06:26:04;30.65;;;16.58;;
45103;SDS011;30865;51.288;4.572;2023-05-16T06:28:30;33.33;;;17.23;;
45103;SDS011;30865;51.288;4.572;2023-05-16T06:31:05;32.58;;;16.95;;
45103;SDS011;30865;51.288;4.572;2023-05-16T06:33:30;25.70;;;14.63;;
45103;SDS011;30865;51.288;4.572;2023-05-16T06:35:56;30.60;;;16.30;;
45103;SDS011;30865;51.288;4.572;2023-05-16T06:38:21;36.53;;;16.83;;
45103;SDS011;30865;51.288;4.572;2023-05-16T06:40:46;30.17;;;15.57;;
45103;SDS011;30865;51.288;4.572;2023-05-16T06:43:13;26.90;;;14.93;;
45103;SDS011;30865;51.288;4.572;2023-05-16T06:45:38;27.60;;;12.90;;
45103;SDS011;30865;51.288;4.572;2023-05-16T06:48:05;26.23;;;14.48;;
45103;SDS011;30865;51.288;4.572;2023-05-16T06:50:32;26.75;;;15.15;;
45103;SDS011;30865;51.288;4.572;2023-05-16T06:52:59;25.42;;;13.43;;
45103;SDS011;30865;51.288;4.572;2023-05-16T06:55:25;27.15;;;14.25;;
45103;SDS011;30865;51.288;4.572;2023-05-16T06:57:50;25.55;;;13.18;;
45103;SDS011;30865;51.288;4.572;2023-05-16T07:00:16;25.10;;;12.23;;
45103;SDS011;30865;51.288;4.572;2023-05-16T07:02:42;22.10;;;11.98;;
45103;SDS011;30865;51.288;4.572;2023-05-16T07:05:07;19.08;;;11.68;;
45103;SDS011;30865;51.288;4.572;2023-05-16T07:07:33;22.55;;;12.82;;
45103;SDS011;30865;51.288;4.572;2023-05-16T07:09:59;24.90;;;11.68;;
45103;SDS011;30865;51.288;4.572;2023-05-16T07:12:25;20.23;;;11.63;;
45103;SDS011;30865;51.288;4.572;2023-05-16T07:14:50;22.63;;;12.43;;
45103;SDS011;30865;51.288;4.572;2023-05-16T07:17:16;23.33;;;11.38;;
45103;SDS011;30865;51.288;4.572;2023-05-16T07:19:41;24.48;;;13.52;;
45103;SDS011;30865;51.288;4.572;2023-05-16T07:22:07;20.75;;;10.98;;
45103;SDS011;30865;51.288;4.572;2023-05-16T07:24:32;19.80;;;11.25;;
45103;SDS011;30865;51.288;4.572;2023-05-16T07:26:58;21.20;;;11.93;;
45103;SDS011;30865;51.288;4.572;2023-05-16T07:29:24;22.80;;;12.50;;
45103;SDS011;30865;51.288;4.572;2023-05-16T07:31:49;20.48;;;11.43;;
45103;SDS011;30865;51.288;4.572;2023-05-16T07:34:15;18.70;;;10.68;;
45103;SDS011;30865;51.288;4.572;2023-05-16T07:36:41;18.92;;;11.00;;
45103;SDS011;30865;51.288;4.572;2023-05-16T07:39:06;18.48;;;10.85;;
45103;SDS011;30865;51.288;4.572;2023-05-16T07:41:32;22.23;;;11.98;;
45103;SDS011;30865;51.288;4.572;2023-05-16T07:43:57;16.63;;;10.73;;
45103;SDS011;30865;51.288;4.572;2023-05-16T07:46:24;18.35;;;10.13;;
45103;SDS011;30865;51.288;4.572;2023-05-16T07:48:50;19.05;;;11.30;;
45103;SDS011;30865;51.288;4.572;2023-05-16T07:51:16;18.88;;;11.50;;
45103;SDS011;30865;51.288;4.572;2023-05-16T07:53:41;17.02;;;10.05;;
45103;SDS011;30865;51.288;4.572;2023-05-16T07:56:07;16.67;;;9.77;;
45103;SDS011;30865;51.288;4.572;2023-05-16T07:58:33;19.17;;;9.60;;
45103;SDS011;30865;51.288;4.572;2023-05-16T08:00:58;12.13;;;8.20;;
45103;SDS011;30865;51.288;4.572;2023-05-16T08:03:24;12.27;;;8.32;;
45103;SDS011;30865;51.288;4.572;2023-05-16T08:05:50;12.43;;;7.47;;
45103;SDS011;30865;51.288;4.572;2023-05-16T08:08:16;12.73;;;8.00;;
45103;SDS011;30865;51.288;4.572;2023-05-16T08:10:41;14.18;;;7.47;;
45103;SDS011;30865;51.288;4.572;2023-05-16T08:13:07;12.40;;;7.32;;
45103;SDS011;30865;51.288;4.572;2023-05-16T08:15:33;21.00;;;9.02;;
45103;SDS011;30865;51.288;4.572;2023-05-16T08:17:59;11.65;;;7.13;;
45103;SDS011;30865;51.288;4.572;2023-05-16T08:20:35;13.55;;;7.15;;
45103;SDS011;30865;51.288;4.572;2023-05-16T08:23:00;10.35;;;7.45;;
45103;SDS011;30865;51.288;4.572;2023-05-16T08:25:26;10.65;;;6.47;;
45103;SDS011;30865;51.288;4.572;2023-05-16T08:27:51;15.90;;;6.30;;
45103;SDS011;30865;51.288;4.572;2023-05-16T08:30:17;9.25;;;5.60;;
45103;SDS011;30865;51.288;4.572;2023-05-16T08:32:43;9.50;;;5.78;;
45103;SDS011;30865;51.288;4.572;2023-05-16T08:35:08;8.68;;;5.55;;
45103;SDS011;30865;51.288;4.572;2023-05-16T08:37:35;9.27;;;5.60;;
45103;SDS011;30865;51.288;4.572;2023-05-16T08:40:00;11.60;;;6.50;;
45103;SDS011;30865;51.288;4.572;2023-05-16T08:42:26;9.27;;;5.72;;
45103;SDS011;30865;51.288;4.572;2023-05-16T08:44:51;12.27;;;6.57;;
45103;SDS011;30865;51.288;4.572;2023-05-16T08:47:18;11.45;;;7.07;;
45103;SDS011;30865;51.288;4.572;2023-05-16T08:49:46;11.70;;;7.18;;
45103;SDS011;30865;51.288;4.572;2023-05-16T08:52:12;13.68;;;7.63;;
45103;SDS011;30865;51.288;4.572;2023-05-16T08:54:38;13.32;;;6.65;;
45103;SDS011;30865;51.288;4.572;2023-05-16T08:57:05;13.48;;;7.63;;
45103;SDS011;30865;51.288;4.572;2023-05-16T08:59:32;16.92;;;8.00;;
45103;SDS011;30865;51.288;4.572;2023-05-16T09:01:58;12.70;;;7.80;;
45103;SDS011;30865;51.288;4.572;2023-05-16T09:04:24;14.27;;;7.63;;
45103;SDS011;30865;51.288;4.572;2023-05-16T09:06:51;13.27;;;8.55;;
45103;SDS011;30865;51.288;4.572;2023-05-16T09:09:17;17.35;;;8.70;;
45103;SDS011;30865;51.288;4.572;2023-05-16T09:11:43;14.65;;;9.18;;
45103;SDS011;30865;51.288;4.572;2023-05-16T09:14:09;14.50;;;9.05;;
45103;SDS011;30865;51.288;4.572;2023-05-16T09:16:35;13.27;;;8.40;;
45103;SDS011;30865;51.288;4.572;2023-05-16T09:19:00;20.52;;;9.73;;
45103;SDS011;30865;51.288;4.572;2023-05-16T09:21:27;16.17;;;9.23;;
45103;SDS011;30865;51.288;4.572;2023-05-16T09:23:53;17.15;;;10.23;;
45103;SDS011;30865;51.288;4.572;2023-05-16T09:26:19;19.05;;;10.32;;
45103;SDS011;30865;51.288;4.572;2023-05-16T09:28:45;19.70;;;10.43;;
45103;SDS011;30865;51.288;4.572;2023-05-16T09:33:55;15.18;;;9.43;;
45103;SDS011;30865;51.288;4.572;2023-05-16T09:36:21;20.08;;;10.65;;
45103;SDS011;30865;51.288;4.572;2023-05-16T09:38:47;17.70;;;11.13;;
45103;SDS011;30865;51.288;4.572;2023-05-16T09:41:14;19.20;;;10.30;;
45103;SDS011;30865;51.288;4.572;2023-05-16T09:43:40;20.70;;;12.05;;
45103;SDS011;30865;51.288;4.572;2023-05-16T09:46:07;21.95;;;9.80;;
45103;SDS011;30865;51.288;4.572;2023-05-16T09:48:39;18.33;;;10.20;;
45103;SDS011;30865;51.288;4.572;2023-05-16T09:51:06;17.90;;;9.15;;
45103;SDS011;30865;51.288;4.572;2023-05-16T09:53:32;17.13;;;10.20;;
45103;SDS011;30865;51.288;4.572;2023-05-16T09:55:58;19.73;;;10.25;;
45103;SDS011;30865;51.288;4.572;2023-05-16T09:58:29;17.05;;;10.05;;
45103;SDS011;30865;51.288;4.572;2023-05-16T10:00:56;18.42;;;9.68;;
45103;SDS011;30865;51.288;4.572;2023-05-16T10:03:22;16.27;;;10.05;;
45103;SDS011;30865;51.288;4.572;2023-05-16T10:05:49;17.00;;;10.00;;
45103;SDS011;30865;51.288;4.572;2023-05-16T10:08:17;19.50;;;9.65;;
45103;SDS011;30865;51.288;4.572;2023-05-16T10:10:52;24.75;;;10.25;;
45103;SDS011;30865;51.288;4.572;2023-05-16T10:13:20;19.25;;;10.90;;
45103;SDS011;30865;51.288;4.572;2023-05-16T10:15:47;15.88;;;9.18;;
45103;SDS011;30865;51.288;4.572;2023-05-16T10:18:15;23.08;;;9.70;;
45103;SDS011;30865;51.288;4.572;2023-05-16T10:20:46;17.30;;;9.45;;
45103;SDS011;30865;51.288;4.572;2023-05-16T10:23:17;16.95;;;10.73;;
45103;SDS011;30865;51.288;4.572;2023-05-16T10:25:44;18.45;;;10.55;;
45103;SDS011;30865;51.288;4.572;2023-05-16T10:28:12;18.15;;;9.98;;
45103;SDS011;30865;51.288;4.572;2023-05-16T10:30:42;23.85;;;10.95;;
45103;SDS011;30865;51.288;4.572;2023-05-16T10:33:13;18.95;;;10.50;;
45103;SDS011;30865;51.288;4.572;2023-05-16T10:35:40;18.15;;;9.82;;
45103;SDS011;30865;51.288;4.572;2023-05-16T10:38:08;16.40;;;9.82;;
45103;SDS011;30865;51.288;4.572;2023-05-16T10:40:36;15.85;;;8.43;;
45103;SDS011;30865;51.288;4.572;2023-05-16T10:43:03;18.50;;;10.52;;
45103;SDS011;30865;51.288;4.572;2023-05-16T10:45:30;16.55;;;9.73;;
45103;SDS011;30865;51.288;4.572;2023-05-16T10:47:57;20.10;;;10.13;;
45103;SDS011;30865;51.288;4.572;2023-05-16T10:50:30;17.20;;;8.80;;
45103;SDS011;30865;51.288;4.572;2023-05-16T10:53:09;15.27;;;8.30;;
45103;SDS011;30865;51.288;4.572;2023-05-16T10:58:45;13.88;;;8.70;;
45103;SDS011;30865;51.288;4.572;2023-05-16T11:01:13;16.45;;;9.18;;
45103;SDS011;30865;51.288;4.572;2023-05-16T11:03:59;16.75;;;9.20;;
45103;SDS011;30865;51.288;4.572;2023-05-16T11:14:41;15.07;;;9.10;;
45103;SDS011;30865;51.288;4.572;2023-05-16T11:17:08;16.23;;;9.43;;
45103;SDS011;30865;51.288;4.572;2023-05-16T11:19:41;15.63;;;9.43;;
45103;SDS011;30865;51.288;4.572;2023-05-16T11:27:35;18.30;;;8.30;;
45103;SDS011;30865;51.288;4.572;2023-05-16T11:30:14;15.95;;;7.22;;
45103;SDS011;30865;51.288;4.572;2023-05-16T11:32:42;13.63;;;7.10;;
45103;SDS011;30865;51.288;4.572;2023-05-16T11:35:10;11.23;;;6.75;;
45103;SDS011;30865;51.288;4.572;2023-05-16T11:37:38;12.85;;;6.90;;
45103;SDS011;30865;51.288;4.572;2023-05-16T11:40:04;11.35;;;6.60;;
45103;SDS011;30865;51.288;4.572;2023-05-16T11:42:42;11.85;;;6.45;;
45103;SDS011;30865;51.288;4.572;2023-05-16T11:47:41;15.00;;;6.80;;
45103;SDS011;30865;51.288;4.572;2023-05-16T11:50:12;10.93;;;6.57;;
45103;SDS011;30865;51.288;4.572;2023-05-16T11:52:39;12.20;;;6.35;;
45103;SDS011;30865;51.288;4.572;2023-05-16T11:55:07;11.98;;;6.75;;
45103;SDS011;30865;51.288;4.572;2023-05-16T11:57:35;12.27;;;6.75;;
45103;SDS011;30865;51.288;4.572;2023-05-16T12:02:41;9.02;;;6.68;;
45103;SDS011;30865;51.288;4.572;2023-05-16T12:05:08;10.32;;;5.97;;
45103;SDS011;30865;51.288;4.572;2023-05-16T12:07:35;10.00;;;5.75;;
45103;SDS011;30865;51.288;4.572;2023-05-16T12:10:08;10.13;;;5.60;;
45103;SDS011;30865;51.288;4.572;2023-05-16T12:12:44;10.90;;;6.32;;
45103;SDS011;30865;51.288;4.572;2023-05-16T12:15:11;11.23;;;5.25;;
45103;SDS011;30865;51.288;4.572;2023-05-16T12:17:38;10.90;;;5.65;;
45103;SDS011;30865;51.288;4.572;2023-05-16T12:20:04;9.32;;;5.45;;
45103;SDS011;30865;51.288;4.572;2023-05-16T12:22:31;10.52;;;6.13;;
45103;SDS011;30865;51.288;4.572;2023-05-16T12:24:58;7.68;;;5.20;;
45103;SDS011;30865;51.288;4.572;2023-05-16T12:27:24;10.93;;;5.57;;
45103;SDS011;30865;51.288;4.572;2023-05-16T12:29:51;17.05;;;5.55;;
45103;SDS011;30865;51.288;4.572;2023-05-16T12:32:17;10.23;;;5.15;;
45103;SDS011;30865;51.288;4.572;2023-05-16T12:34:50;8.00;;;5.32;;
45103;SDS011;30865;51.288;4.572;2023-05-16T12:37:16;7.82;;;4.30;;
45103;SDS011;30865;51.288;4.572;2023-05-16T12:39:42;7.97;;;4.38;;
45103;SDS011;30865;51.288;4.572;2023-05-16T12:42:11;6.57;;;4.45;;
45103;SDS011;30865;51.288;4.572;2023-05-16T12:44:37;8.05;;;4.25;;
45103;SDS011;30865;51.288;4.572;2023-05-16T12:47:03;5.60;;;3.50;;
45103;SDS011;30865;51.288;4.572;2023-05-16T12:49:35;8.18;;;4.20;;
45103;SDS011;30865;51.288;4.572;2023-05-16T12:52:01;5.72;;;3.65;;
45103;SDS011;30865;51.288;4.572;2023-05-16T12:54:29;6.95;;;3.97;;
45103;SDS011;30865;51.288;4.572;2023-05-16T12:56:55;4.93;;;3.60;;
45103;SDS011;30865;51.288;4.572;2023-05-16T12:59:20;5.30;;;3.65;;
45103;SDS011;30865;51.288;4.572;2023-05-16T13:01:46;4.55;;;3.10;;
45103;SDS011;30865;51.288;4.572;2023-05-16T13:04:11;5.13;;;3.33;;
45103;SDS011;30865;51.288;4.572;2023-05-16T13:06:42;5.68;;;3.20;;
45103;SDS011;30865;51.288;4.572;2023-05-16T13:09:07;4.65;;;3.20;;
45103;SDS011;30865;51.288;4.572;2023-05-16T13:11:34;5.15;;;2.70;;
45103;SDS011;30865;51.288;4.572;2023-05-16T13:14:00;4.72;;;3.72;;
45103;SDS011;30865;51.288;4.572;2023-05-16T13:16:25;5.70;;;3.65;;
45103;SDS011;30865;51.288;4.572;2023-05-16T13:18:51;8.00;;;2.78;;
45103;SDS011;30865;51.288;4.572;2023-05-16T13:21:17;2.97;;;2.60;;
45103;SDS011;30865;51.288;4.572;2023-05-16T13:23:42;4.60;;;2.95;;
45103;SDS011;30865;51.288;4.572;2023-05-16T13:26:08;8.25;;;2.67;;
45103;SDS011;30865;51.288;4.572;2023-05-16T13:28:33;3.25;;;2.45;;
45103;SDS011;30865;51.288;4.572;2023-05-16T13:31:00;4.35;;;2.70;;
45103;SDS011;30865;51.288;4.572;2023-05-16T13:33:25;2.72;;;2.10;;
45103;SDS011;30865;51.288;4.572;2023-05-16T13:35:51;4.63;;;2.60;;
45103;SDS011;30865;51.288;4.572;2023-05-16T13:38:19;2.40;;;2.10;;
45103;SDS011;30865;51.288;4.572;2023-05-16T13:40:44;5.22;;;2.60;;
45103;SDS011;30865;51.288;4.572;2023-05-16T13:43:10;3.53;;;2.25;;
45103;SDS011;30865;51.288;4.572;2023-05-16T13:45:38;6.90;;;2.40;;
45103;SDS011;30865;51.288;4.572;2023-05-16T13:48:03;4.28;;;2.33;;
45103;SDS011;30865;51.288;4.572;2023-05-16T13:50:29;3.45;;;2.15;;
45103;SDS011;30865;51.288;4.572;2023-05-16T13:52:56;3.67;;;3.17;;
45103;SDS011;30865;51.288;4.572;2023-05-16T13:55:21;2.97;;;2.60;;
45103;SDS011;30865;51.288;4.572;2023-05-16T13:57:47;3.45;;;2.65;;
45103;SDS011;30865;51.288;4.572;2023-05-16T14:00:13;6.05;;;2.78;;
45103;SDS011;30865;51.288;4.572;2023-05-16T14:02:39;3.75;;;2.72;;
45103;SDS011;30865;51.288;4.572;2023-05-16T14:05:06;2.65;;;2.45;;
45103;SDS011;30865;51.288;4.572;2023-05-16T14:07:33;2.67;;;2.45;;
45103;SDS011;30865;51.288;4.572;2023-05-16T14:09:59;2.63;;;2.00;;
45103;SDS011;30865;51.288;4.572;2023-05-16T14:12:24;5.25;;;2.72;;
45103;SDS011;30865;51.288;4.572;2023-05-16T14:14:50;2.67;;;2.20;;
45103;SDS011;30865;51.288;4.572;2023-05-16T14:17:16;3.25;;;2.28;;
45103;SDS011;30865;51.288;4.572;2023-05-16T14:19:41;4.05;;;2.45;;
45103;SDS011;30865;51.288;4.572;2023-05-16T14:22:10;2.30;;;1.85;;
45103;SDS011;30865;51.288;4.572;2023-05-16T14:24:35;4.05;;;2.47;;
45103;SDS011;30865;51.288;4.572;2023-05-16T14:27:01;2.75;;;1.98;;
45103;SDS011;30865;51.288;4.572;2023-05-16T14:29:27;4.72;;;2.28;;
45103;SDS011;30865;51.288;4.572;2023-05-16T14:31:52;5.00;;;2.10;;
45103;SDS011;30865;51.288;4.572;2023-05-16T14:34:18;5.95;;;3.28;;
45103;SDS011;30865;51.288;4.572;2023-05-16T14:36:43;3.65;;;2.50;;
45103;SDS011;30865;51.288;4.572;2023-05-16T14:39:09;4.18;;;2.20;;
45103;SDS011;30865;51.288;4.572;2023-05-16T14:41:35;7.20;;;2.00;;
45103;SDS011;30865;51.288;4.572;2023-05-16T14:44:01;1.83;;;1.73;;
45103;SDS011;30865;51.288;4.572;2023-05-16T14:46:26;6.05;;;2.50;;
45103;SDS011;30865;51.288;4.572;2023-05-16T14:48:52;2.50;;;1.90;;
45103;SDS011;30865;51.288;4.572;2023-05-16T14:51:17;4.10;;;1.90;;
45103;SDS011;30865;51.288;4.572;2023-05-16T14:53:43;4.15;;;1.98;;
45103;SDS011;30865;51.288;4.572;2023-05-16T14:56:08;2.67;;;1.95;;
45103;SDS011;30865;51.288;4.572;2023-05-16T14:58:34;3.45;;;2.28;;
45103;SDS011;30865;51.288;4.572;2023-05-16T15:01:00;3.17;;;1.98;;
45103;SDS011;30865;51.288;4.572;2023-05-16T15:03:25;4.13;;;2.08;;
45103;SDS011;30865;51.288;4.572;2023-05-16T15:05:51;4.63;;;2.20;;
45103;SDS011;30865;51.288;4.572;2023-05-16T15:08:16;3.15;;;2.10;;